Terminal Aerodrome Forecast
Issued by NWS Raleigh/Durham, NC

Home | Current Version | Previous Version | Text Only | Print | Product List | Glossary On
Versions: 1 2 3 4 5 6 7 8 9 10 11 12 13 14 15 16 17 18 19 20 21 22 23 24 25 26 27 28 29 30 31 32 33 34 35 36 37 38 39 40 41 42 43 44 45 46 47 48 49 50
000
FTUS42 KRAH 291738
TAFGSO
TAF
KGSO 291738Z 2918/3018 13010KT P6SM VCTS BKN019CB BKN080
      TEMPO 2918/2922 VRB15G30KT 4SM TSRA SCT020 BKN040CB
     FM300400 11006KT P6SM SCT007
     FM300700 11005KT 4SM BR OVC003
      TEMPO 3009/3012 2SM BR OVC002
     FM301300 10004KT P6SM FEW040=

USA.gov is the U.S. government's official web portal to all federal, state and local government web resources and services.